MiSS Darian — WDC7675 — position and weather

sailwx.info

Track history (hours):
 
Tides and Currents Weather Stations Pressure Air Temp Water Temp Dewpoint Dewpoint Depression Visibility Wind Speed Wind Dir Waves Ship Positions

MiSS Darian

Owner: D&S Marine Service,LLC., Houma, LA. More information available from US FCC via Universal Licensing System and Coast Guard Vessel Documentation Center.

Last reported at 2017-Dec-11 10:09 UTC. Time now 2017-Dec-14 17:15 UTC.
Position N 29°27' W 094°42'.

Length 19 m.

Type: . MMSI: 367075020.

Date/timePositionNaut miles runAvg speedWind from/ knotsBaromVisibWave heightAir tempDewpointWater temp
2017-Dec-11 10:09N 29°27' W 094°42'70 4.3
2017-Dec-10 17:58N 30°04' W 093°33'2 4.3
2017-Dec-10 17:30N 30°04' W 093°31'2 4.3
2017-Dec-10 17:00N 30°04' W 093°29'2 4.4
2017-Dec-10 16:30N 30°04' W 093°26'2 4.4
2017-Dec-10 16:00N 30°04' W 093°24'2 4.0
2017-Dec-10 15:31N 30°04' W 093°21'2 4.1
2017-Dec-10 15:01N 30°05' W 093°20'2 3.1
2017-Dec-10 14:31N 30°06' W 093°18'2 3.4
2017-Dec-10 14:00N 30°05' W 093°17'1 1.9
2017-Dec-10 13:31N 30°04' W 093°16'2 3.1
2017-Dec-10 13:00N 30°02' W 093°16'2 3.5
2017-Dec-10 12:30N 30°01' W 093°14'2 4.3
2017-Dec-10 12:01N 29°59' W 093°13'2 4.8
2017-Dec-10 11:30N 29°58' W 093°11'2 4.5
2017-Dec-10 11:01N 29°56' W 093°09'2 4.6
2017-Dec-10 10:30N 29°56' W 093°07'2 4.3
2017-Dec-10 10:00N 29°56' W 093°04'2 3.4
2017-Dec-10 09:30N 29°56' W 093°02'2 4.6
2017-Dec-10 09:01N 29°56' W 092°60'2 4.5
2017-Dec-10 08:30N 29°56' W 092°57'31 3.3
2017-Dec-09 23:00N 29°51' W 092°22'2 3.9
2017-Dec-09 22:30N 29°50' W 092°20'2 3.7
2017-Dec-09 22:00N 29°50' W 092°18'1 2.7
2017-Dec-09 21:30N 29°49' W 092°16'1 2.7
2017-Dec-09 21:00N 29°48' W 092°15'2 4.1
2017-Dec-09 20:31N 29°47' W 092°13'2 3.0
2017-Dec-09 20:01N 29°47' W 092°11'0 0.1
2017-Dec-09 19:31N 29°47' W 092°11'1 1.2
2017-Dec-09 19:00N 29°47' W 092°11'2 4.1
2017-Dec-09 18:31N 29°47' W 092°08'2 4.4
2017-Dec-09 18:00N 29°48' W 092°06'2 4.0
2017-Dec-09 17:31N 29°49' W 092°04'2 4.3
2017-Dec-09 17:00N 29°49' W 092°01'2 4.3
2017-Dec-09 16:31N 29°50' W 091°59'2 3.8
2017-Dec-09 16:00N 29°51' W 091°57'2 4.3
2017-Dec-09 15:31N 29°51' W 091°54'4 4.7
2017-Dec-09 14:46N 29°50' W 091°50'1 4.5
2017-Dec-09 14:30N 29°50' W 091°50'  
2017-Dec-02 17:42N 29°33' W 090°28'1 4.7
2017-Dec-02 17:30N 29°34' W 090°29'4 2.0
2017-Dec-02 15:21N 29°34' W 090°34'0 0.0
2017-Dec-02 14:57N 29°34' W 090°34'0 0.0
2017-Dec-02 14:27N 29°34' W 090°34'0 0.0
2017-Dec-02 13:57N 29°34' W 090°34'0 0.0
2017-Dec-02 13:27N 29°34' W 090°34'0 0.0
2017-Dec-02 12:45N 29°34' W 090°34'0 0.0
2017-Dec-02 12:27N 29°34' W 090°34'0 0.0
2017-Dec-02 10:33N 29°34' W 090°34'0 0.0
2017-Dec-02 10:03N 29°34' W 090°34'0 0.0
2017-Dec-02 09:45N 29°34' W 090°34'0 0.0
2017-Dec-02 09:27N 29°34' W 090°34'0 0.0
2017-Dec-02 08:57N 29°34' W 090°34'0 0.4
2017-Dec-02 07:39N 29°34' W 090°35'0 1.2
2017-Dec-02 07:27N 29°34' W 090°35'1 1.4
2017-Dec-02 06:57N 29°35' W 090°35'1 1.5
2017-Dec-02 06:30N 29°35' W 090°36'2 4.9
2017-Dec-02 06:00N 29°36' W 090°39'2 4.6
2017-Dec-02 05:30N 29°36' W 090°41'1 2.6
2017-Dec-02 05:00N 29°36' W 090°43'2 3.7
2017-Dec-02 04:31N 29°34' W 090°43'2 3.3
2017-Dec-02 04:00N 29°34' W 090°45'2 4.1
2017-Dec-02 03:30N 29°32' W 090°47'2 4.6
2017-Dec-02 03:00N 29°32' W 090°49'3 5.4
2017-Dec-02 02:30N 29°32' W 090°52'3 5.9
2017-Dec-02 02:00N 29°34' W 090°55'  
Track history (hours):
 
Tides and Currents Weather Stations Pressure Air Temp Water Temp Dewpoint Dewpoint Depression Visibility Wind Speed Wind Dir Waves Ship Positions

MiSS Darian

Owner: D&S Marine Service,LLC., Houma, LA. More information available from US FCC via Universal Licensing System and Coast Guard Vessel Documentation Center.

Last reported at 2017-Dec-11 10:09 UTC. Time now 2017-Dec-14 17:15 UTC.
Position N 29°27' W 094°42'.

Length 19 m.

Type: . MMSI: 367075020.

Date/timePositionNaut miles runAvg speedWind from/ knotsBaromVisibWave heightAir tempDewpointWater temp
2017-Dec-11 10:09N 29°27' W 094°42'70 4.3
2017-Dec-10 17:58N 30°04' W 093°33'2 4.3
2017-Dec-10 17:30N 30°04' W 093°31'2 4.3
2017-Dec-10 17:00N 30°04' W 093°29'2 4.4
2017-Dec-10 16:30N 30°04' W 093°26'2 4.4
2017-Dec-10 16:00N 30°04' W 093°24'2 4.0
2017-Dec-10 15:31N 30°04' W 093°21'2 4.1
2017-Dec-10 15:01N 30°05' W 093°20'2 3.1
2017-Dec-10 14:31N 30°06' W 093°18'2 3.4
2017-Dec-10 14:00N 30°05' W 093°17'1 1.9
2017-Dec-10 13:31N 30°04' W 093°16'2 3.1
2017-Dec-10 13:00N 30°02' W 093°16'2 3.5
2017-Dec-10 12:30N 30°01' W 093°14'2 4.3
2017-Dec-10 12:01N 29°59' W 093°13'2 4.8
2017-Dec-10 11:30N 29°58' W 093°11'2 4.5
2017-Dec-10 11:01N 29°56' W 093°09'2 4.6
2017-Dec-10 10:30N 29°56' W 093°07'2 4.3
2017-Dec-10 10:00N 29°56' W 093°04'2 3.4
2017-Dec-10 09:30N 29°56' W 093°02'2 4.6
2017-Dec-10 09:01N 29°56' W 092°60'2 4.5
2017-Dec-10 08:30N 29°56' W 092°57'31 3.3
2017-Dec-09 23:00N 29°51' W 092°22'2 3.9
2017-Dec-09 22:30N 29°50' W 092°20'2 3.7
2017-Dec-09 22:00N 29°50' W 092°18'1 2.7
2017-Dec-09 21:30N 29°49' W 092°16'1 2.7
2017-Dec-09 21:00N 29°48' W 092°15'2 4.1
2017-Dec-09 20:31N 29°47' W 092°13'2 3.0
2017-Dec-09 20:01N 29°47' W 092°11'0 0.1
2017-Dec-09 19:31N 29°47' W 092°11'1 1.2
2017-Dec-09 19:00N 29°47' W 092°11'2 4.1
2017-Dec-09 18:31N 29°47' W 092°08'2 4.4
2017-Dec-09 18:00N 29°48' W 092°06'2 4.0
2017-Dec-09 17:31N 29°49' W 092°04'2 4.3
2017-Dec-09 17:00N 29°49' W 092°01'2 4.3
2017-Dec-09 16:31N 29°50' W 091°59'2 3.8
2017-Dec-09 16:00N 29°51' W 091°57'2 4.3
2017-Dec-09 15:31N 29°51' W 091°54'4 4.7
2017-Dec-09 14:46N 29°50' W 091°50'1 4.5
2017-Dec-09 14:30N 29°50' W 091°50'  
2017-Dec-02 17:42N 29°33' W 090°28'1 4.7
2017-Dec-02 17:30N 29°34' W 090°29'4 2.0
2017-Dec-02 15:21N 29°34' W 090°34'0 0.0
2017-Dec-02 14:57N 29°34' W 090°34'0 0.0
2017-Dec-02 14:27N 29°34' W 090°34'0 0.0
2017-Dec-02 13:57N 29°34' W 090°34'0 0.0
2017-Dec-02 13:27N 29°34' W 090°34'0 0.0
2017-Dec-02 12:45N 29°34' W 090°34'0 0.0
2017-Dec-02 12:27N 29°34' W 090°34'0 0.0
2017-Dec-02 10:33N 29°34' W 090°34'0 0.0
2017-Dec-02 10:03N 29°34' W 090°34'0 0.0
2017-Dec-02 09:45N 29°34' W 090°34'0 0.0
2017-Dec-02 09:27N 29°34' W 090°34'0 0.0
2017-Dec-02 08:57N 29°34' W 090°34'0 0.4
2017-Dec-02 07:39N 29°34' W 090°35'0 1.2
2017-Dec-02 07:27N 29°34' W 090°35'1 1.4
2017-Dec-02 06:57N 29°35' W 090°35'1 1.5
2017-Dec-02 06:30N 29°35' W 090°36'2 4.9
2017-Dec-02 06:00N 29°36' W 090°39'2 4.6
2017-Dec-02 05:30N 29°36' W 090°41'1 2.6
2017-Dec-02 05:00N 29°36' W 090°43'2 3.7
2017-Dec-02 04:31N 29°34' W 090°43'2 3.3
2017-Dec-02 04:00N 29°34' W 090°45'2 4.1
2017-Dec-02 03:30N 29°32' W 090°47'2 4.6
2017-Dec-02 03:00N 29°32' W 090°49'3 5.4
2017-Dec-02 02:30N 29°32' W 090°52'3 5.9
2017-Dec-02 02:00N 29°34' W 090°55'  

Dump ship's entire track history